ROK weather

Rockhampton Airport
Rockhampton, Queensland, Australia

Public forecast

Using degrees Celsius for public forecast. Weather courtesy of forecast.io.

METAR (pilot weather report)

Retrieved 2017/12/11 21:30 UTC (21 minutes ago):

YBRK 112130Z AUTO 11009KT 9999 // SCT022 24/18 Q1014 RF00.0/000.0

TAF (pilot weather forecast)

Retrieved 2017/12/11 18:36 UTC (3 hours ago):

TAF TAF YBRK 111728Z 1118/1218 13007KT 9999 SCT020 FM112200 12010KT 9999 FEW035 FM120200 09009KT 9999 -SHRA SCT045 FM120800 13006KT 9999 SCT025